ADDS METAR Data INFO
IDs: Format: Raw Decoded Include TAF

Data at: 1346 UTC 17 Dec 2017

KAUM 171335Z AUTO 06005KT 3/4SM BR OVC001 M04/M05 A3004 RMK AO2
KAUM 171315Z AUTO 06003KT 3/4SM OVC001 M04/M05 A3004 RMK AO2
KAUM 171255Z AUTO 05004KT 3/4SM BR OVC001 M04/M05 A3005 RMK AO2
KAUM 171235Z AUTO 00000KT 1/2SM FZFG OVC001 M04/M05 A3006 RMK AO2
KAUM 171215Z AUTO 00000KT 1/2SM FZFG OVC001 M04/M05 A3006 RMK AO2
KAUM 171155Z AUTO 09004KT 1/2SM FZFG OVC001 M04/M05 A3006 RMK AO2
KAUM 171135Z AUTO 08004KT 3/4SM BR OVC001 M04/M06 A3004 RMK AO2
KAUM 171115Z AUTO 08003KT 3/4SM BR OVC001 M04/M06 A3003 RMK AO2
KAUM 171055Z AUTO 07006KT 3/4SM BR OVC001 M04/M06 A3003 RMK AO2
KAUM 171035Z AUTO 08004KT 3/4SM BR OVC001 M04/M06 A3004 RMK AO2
KAUM 171015Z AUTO 07007KT 3/4SM BR OVC001 M04/M06 A3004 RMK AO2
KAUM 170955Z AUTO 08005KT 1/2SM FZFG OVC001 M05/M06 A3005 RMK AO2
KAUM 170935Z AUTO 06005KT 1/2SM FZFG OVC001 M05/M06 A3004 RMK AO2
KAUM 170915Z AUTO 03003KT 3/4SM BR OVC001 M06/M07 A3005 RMK AO2
KAUM 170855Z AUTO 06004KT 1 1/2SM BR OVC003 M06/M07 A3005 RMK AO2
KAUM 170835Z AUTO 07003KT 7SM CLR M06/M08 A3005 RMK AO2
KAUM 170815Z AUTO 00000KT 7SM CLR M06/M07 A3004 RMK AO2
KAUM 170755Z AUTO 00000KT 7SM CLR M06/M07 A3004 RMK AO2
KAUM 170735Z AUTO 05003KT 7SM CLR M06/M07 A3003 RMK AO2
KAUM 170715Z AUTO 00000KT 7SM CLR M06/M07 A3005 RMK AO2
KAUM 170655Z AUTO 00000KT 7SM CLR M06/M07 A3005 RMK AO2
KAUM 170635Z AUTO 06003KT 7SM CLR M06/M07 A3004 RMK AO2
KAUM 170615Z AUTO 04004KT 10SM CLR M06/M07 A3003 RMK AO2
KAUM 170555Z AUTO 00000KT 10SM CLR M05/M07 A3004 RMK AO2
KAUM 170535Z AUTO 00000KT 10SM CLR M05/M07 A3005 RMK AO2
KAUM 170515Z AUTO 07003KT 10SM CLR M04/M07 A3003 RMK AO2
KAUM 170455Z AUTO 06004KT 10SM CLR M04/M07 A3003 RMK AO2
KAUM 170435Z AUTO 03005KT 10SM CLR M04/M06 A3004 RMK AO2
KAUM 170415Z AUTO 00000KT 10SM CLR M04/M06 A3006 RMK AO2
KAUM 170355Z AUTO 03004KT 10SM CLR M04/M06 A3006 RMK AO2
KAUM 170335Z AUTO 04004KT 10SM CLR M04/M06 A3005 RMK AO2
KAUM 170315Z AUTO 04003KT 10SM CLR M04/M06 A3006 RMK AO2
KAUM 170255Z AUTO 00000KT 10SM CLR M04/M06 A3004 RMK AO2
KAUM 170235Z AUTO 04004KT 10SM CLR M03/M05 A3004 RMK AO2
KAUM 170215Z AUTO 04004KT 10SM CLR M03/M05 A3003 RMK AO2
KAUM 170155Z AUTO 06004KT 10SM CLR M03/M04 A3003 RMK AO2
KAUM 170135Z AUTO 05004KT 10SM CLR M03/M04 A3002 RMK AO2
KAUM 170115Z AUTO 04005KT 10SM CLR M02/M04 A3000 RMK AO2
KAUM 170055Z AUTO 04007KT 10SM CLR M02/M03 A2999 RMK AO2
KAUM 170035Z AUTO 03007KT 10SM CLR M01/M03 A2998 RMK AO2
KAUM 170015Z AUTO 04006KT 10SM CLR M01/M03 A2997 RMK AO2
KAUM 162355Z AUTO 04004KT 10SM CLR M01/M03 A2997 RMK AO2
KAUM 162335Z AUTO 04004KT 10SM CLR 00/M03 A2996 RMK AO2
KAUM 162315Z AUTO 04003KT 10SM CLR 01/M03 A2995 RMK AO2
KAUM 162255Z AUTO 00000KT 10SM CLR 01/M02 A2994 RMK AO2
KAUM 162235Z AUTO 00000KT 10SM CLR 02/M02 A2993 RMK AO2
KAUM 162215Z AUTO 05003KT 10SM CLR 02/M02 A2992 RMK AO2
KAUM 162155Z AUTO 00000KT 10SM CLR 02/M02 A2991 RMK AO2
KAUM 162135Z AUTO 04003KT 10SM CLR 02/M02 A2990 RMK AO2
KAUM 162115Z AUTO 03003KT 10SM CLR 03/M02 A2989 RMK AO2
KAUM 162055Z AUTO 06004KT 10SM CLR 03/M02 A2987 RMK AO2
KAUM 162035Z AUTO 05004KT 10SM CLR 03/M02 A2987 RMK AO2
KAUM 162015Z AUTO 05004KT 10SM CLR 03/M02 A2986 RMK AO2
KAUM 161955Z AUTO 01004KT 10SM CLR 03/M03 A2984 RMK AO2
KAUM 161935Z AUTO 06004KT 10SM CLR 03/M03 A2983 RMK AO2
KAUM 161915Z AUTO 00000KT 10SM CLR 03/M03 A2984 RMK AO2
KAUM 161855Z AUTO 00000KT 10SM CLR 03/M03 A2983 RMK AO2
KAUM 161835Z AUTO 00000KT 10SM CLR 02/M03 A2983 RMK AO2
KAUM 161815Z AUTO 00000KT 10SM CLR 03/M03 A2983 RMK AO2
KAUM 161755Z AUTO 00000KT 10SM CLR 02/M03 A2983 RMK AO2
KAUM 161735Z AUTO 00000KT 10SM CLR 02/M04 A2982 RMK AO2
KAUM 161715Z AUTO 00000KT 10SM CLR 01/M04 A2981 RMK AO2
KAUM 161655Z AUTO 00000KT 10SM CLR 01/M04 A2981 RMK AO2
KAUM 161635Z AUTO 00000KT 10SM CLR 01/M04 A2981 RMK AO2
KAUM 161615Z AUTO 00000KT 10SM CLR 00/M04 A2980 RMK AO2
KAUM 161555Z AUTO 00000KT 10SM CLR M01/M04 A2979 RMK AO2
KAUM 161535Z AUTO 00000KT 10SM CLR M02/M05 A2978 RMK AO2
KAUM 161515Z AUTO 00000KT 10SM CLR M02/M05 A2977 RMK AO2
KAUM 161455Z AUTO 00000KT 10SM CLR M03/M05 A2976 RMK AO2
KAUM 161435Z AUTO 00000KT 10SM CLR M04/M06 A2974 RMK AO2
KAUM 161415Z AUTO 18005KT 10SM CLR M04/M06 A2973 RMK AO2
KAUM 161355Z AUTO 13005KT 10SM CLR M05/M07 A2972 RMK AO2
KAUM 161335Z AUTO 11005KT 10SM CLR M05/M07 A2972 RMK AO2
KAUM 161315Z AUTO 00000KT 10SM CLR M05/M07 A2972 RMK AO2
KAUM 161255Z AUTO 00000KT 10SM CLR M05/M07 A2972 RMK AO2
KAUM 161235Z AUTO 00000KT 10SM CLR M05/M07 A2971 RMK AO2
KAUM 161215Z AUTO 14003KT 10SM CLR M03/M06 A2969 RMK AO2
KAUM 161155Z AUTO 12003KT 10SM SCT080 M03/M06 A2968 RMK AO2
KAUM 161135Z AUTO 00000KT 10SM SCT080 M03/M06 A2967 RMK AO2
KAUM 161115Z AUTO 19003KT 10SM CLR M03/M05 A2967 RMK AO2
KAUM 161055Z AUTO 00000KT 10SM CLR M03/M05 A2967 RMK AO2
KAUM 161035Z AUTO 19005KT 10SM CLR M03/M05 A2965 RMK AO2
KAUM 161015Z AUTO 18006KT 10SM CLR M02/M05 A2965 RMK AO2
KAUM 160955Z AUTO 19005KT 10SM CLR M02/M04 A2966 RMK AO2
KAUM 160935Z AUTO 17005KT 10SM CLR M01/M04 A2965 RMK AO2
KAUM 160915Z AUTO 17003KT 10SM CLR M01/M04 A2966 RMK AO2
KAUM 160855Z AUTO 00000KT 10SM SCT090 M01/M04 A2965 RMK AO2
KAUM 160835Z AUTO 00000KT 10SM SCT090 M01/M04 A2966 RMK AO2
KAUM 160815Z AUTO 19003KT 10SM CLR 00/M04 A2966 RMK AO2
KAUM 160755Z AUTO 20007KT 10SM SCT100 M01/M03 A2966 RMK AO2
KAUM 160735Z AUTO 19006KT 10SM SCT100 M01/M04 A2964 RMK AO2
KAUM 160715Z AUTO 18007KT 10SM CLR 00/M04 A2963 RMK AO2
KAUM 160655Z AUTO 17006KT 10SM CLR 01/M04 A2963 RMK AO2
KAUM 160635Z AUTO 17004KT 10SM SCT070 01/M04 A2964 RMK AO2
KAUM 160615Z AUTO 16005KT 10SM BKN070 01/M04 A2965 RMK AO2
KAUM 160555Z AUTO 16004KT 10SM BKN070 120 01/M04 A2966 RMK AO2
KAUM 160535Z AUTO 16004KT 10SM SCT070 120 01/M04 A2967 RMK AO2
KAUM 160515Z AUTO 16004KT 10SM SCT120 01/M04 A2968 RMK AO2
KAUM 160455Z AUTO 16005KT 10SM SCT070 01/M03 A2969 RMK AO2
KAUM 160435Z AUTO 16004KT 10SM BKN080 01/M03 A2969 RMK AO2
KAUM 160415Z AUTO 16003KT 10SM OVC080 01/M03 A2970 RMK AO2
KAUM 160355Z AUTO 17003KT 10SM BKN080 01/M03 A2970 RMK AO2
KAUM 160335Z AUTO 15003KT 10SM SCT080 SCT090 01/M03 A2971 RMK AO2
KAUM 160315Z AUTO 18003KT 10SM OVC080 01/M03 A2971 RMK AO2
KAUM 160255Z AUTO 00000KT 10SM SCT070 OVC080 01/M03 A2971 RMK AO2
KAUM 160235Z AUTO 15003KT 10SM BKN070 OVC090 01/M03 A2972 RMK AO2
KAUM 160215Z AUTO 14004KT 10SM BKN080 OVC090 00/M02 A2972 RMK AO2
KAUM 160155Z AUTO 14004KT 10SM OVC080 00/M02 A2973 RMK AO2